Time;durP1;ratioP1;P1;durP2;ratioP2;P2;SDS_P1;SDS_P2;PMS_P1;PMS_P2;Temp;Humidity;BMP_temperature;BMP_pressure;BME280_temperature;BME280_humidity;BME280_pressure;Samples;Min_cycle;Max_cycle;Signal;HPM_P1;HPM_P2
2021/03/28 00:02:09;;;;;;;;;;;;;;;10.45;47.83;102118.00;4985678;28;6839;-77
2021/03/28 00:05:11;;;;;;;;;;;;;;;10.43;47.96;102121.34;5002800;28;11056;-77
2021/03/28 00:07:46;;;;;;;;;;;;;;;10.40;47.63;102126.38;4975811;28;11449;-77
2021/03/28 00:10:28;;;;;;;;;;;;;;;10.33;47.82;102110.53;4988099;28;7041;-77
2021/03/28 00:13:16;;;;;;;;;;;;;;;10.30;47.80;102122.47;4977319;28;8420;-77
2021/03/28 00:15:56;;;;;;;;;;;;;;;10.26;47.96;102115.38;4990855;28;12718;-78
2021/03/28 00:18:34;;;;;;;;;;;;;;;10.21;48.12;102116.84;4988956;28;6841;-77
2021/03/28 00:21:27;;;;;;;;;;;;;;;10.17;48.27;102104.50;5003981;28;11325;-77
2021/03/28 00:24:24;;;;;;;;;;;;;;;10.12;48.21;102106.91;4986534;28;11484;-77
2021/03/28 00:27:06;;;;;;;;;;;;;;;10.07;48.20;102109.28;4986523;28;11530;-77
2021/03/28 00:30:04;;;;;;;;;;;;;;;10.05;48.59;102105.75;4974410;28;10948;-77
2021/03/28 00:32:44;;;;;;;;;;;;;;;9.92;48.85;102103.38;4958661;28;11303;-77
2021/03/28 00:35:15;;;;;;;;;;;;;;;9.94;48.41;102111.22;4971241;28;11486;-78
2021/03/28 00:37:44;;;;;;;;;;;;;;;9.93;48.66;102101.66;4986674;28;8693;-77
2021/03/28 00:40:10;;;;;;;;;;;;;;;9.89;48.46;102108.41;4973975;28;7135;-77
2021/03/28 00:42:43;;;;;;;;;;;;;;;9.87;48.77;102106.56;4988034;28;6844;-77
2021/03/28 00:45:15;;;;;;;;;;;;;;;9.85;48.85;102106.50;4970233;28;7011;-77
2021/03/28 00:47:42;;;;;;;;;;;;;;;9.80;48.60;102105.38;4987279;28;7266;-77
2021/03/28 00:50:21;;;;;;;;;;;;;;;9.78;48.93;102104.41;4970932;28;7211;-77
2021/03/28 00:52:53;;;;;;;;;;;;;;;9.75;49.42;102109.47;4987253;28;7378;-77
2021/03/28 00:55:21;;;;;;;;;;;;;;;9.72;49.40;102109.31;4984585;28;7080;-77
2021/03/28 00:57:57;;;;;;;;;;;;;;;9.71;49.15;102116.22;4970917;28;7230;-77
2021/03/28 01:00:53;;;;;;;;;;;;;;;9.68;49.10;102113.47;4971819;28;7929;-77
2021/03/28 01:03:37;;;;;;;;;;;;;;;9.65;49.34;102110.72;4982525;28;11181;-78
2021/03/28 01:06:17;;;;;;;;;;;;;;;9.63;49.60;102104.59;4988570;28;11573;-77
2021/03/28 01:09:04;;;;;;;;;;;;;;;9.61;49.41;102098.44;4985594;28;7034;-77
2021/03/28 01:11:45;;;;;;;;;;;;;;;9.59;49.44;102101.75;4989209;28;11518;-77
2021/03/28 01:14:22;;;;;;;;;;;;;;;9.56;50.23;102096.41;4976213;28;11203;-77
2021/03/28 01:17:15;;;;;;;;;;;;;;;9.54;49.90;102090.25;4969591;28;7038;-77
2021/03/28 01:19:53;;;;;;;;;;;;;;;9.51;50.05;102088.41;4990569;28;11228;-77
2021/03/28 01:22:40;;;;;;;;;;;;;;;9.49;49.96;102094.34;4985860;28;6969;-77
2021/03/28 01:25:17;;;;;;;;;;;;;;;9.48;50.25;102080.50;4963365;28;11011;-77
2021/03/28 01:27:57;;;;;;;;;;;;;;;9.47;50.12;102080.41;4989337;28;8446;-77
2021/03/28 01:30:52;;;;;;;;;;;;;;;9.40;50.12;102077.50;4972130;28;7519;-77
2021/03/28 01:33:26;;;;;;;;;;;;;;;9.42;50.51;102068.13;4987733;28;11196;-77
2021/03/28 01:36:03;;;;;;;;;;;;;;;9.41;50.19;102065.44;4984216;28;7028;-77
2021/03/28 01:38:40;;;;;;;;;;;;;;;9.38;50.46;102073.94;4988076;28;11206;-77
2021/03/28 01:41:12;;;;;;;;;;;;;;;9.40;49.95;102080.09;4970181;28;11532;-77
2021/03/28 01:44:11;;;;;;;;;;;;;;;9.38;50.15;102070.47;4966743;28;7036;-77
2021/03/28 01:46:49;;;;;;;;;;;;;;;9.34;50.83;102063.34;4988906;28;11191;-77
2021/03/28 01:49:39;;;;;;;;;;;;;;;9.35;50.45;102059.94;4982840;28;7068;-77
2021/03/28 01:52:35;;;;;;;;;;;;;;;9.32;50.36;102063.28;4985859;28;10969;-77
2021/03/28 01:55:25;;;;;;;;;;;;;;;9.30;50.85;102077.00;5000977;28;13192;-77
2021/03/28 01:58:14;;;;;;;;;;;;;;;9.27;50.50;102074.25;4987752;28;11088;-77
2021/03/28 02:00:45;;;;;;;;;;;;;;;9.27;51.07;102069.06;4998703;28;11280;-77
2021/03/28 02:03:38;;;;;;;;;;;;;;;9.27;50.87;102072.56;4985039;28;7393;-77
2021/03/28 02:06:07;;;;;;;;;;;;;;;9.28;50.45;102079.50;4986793;28;13081;-77
2021/03/28 02:09:07;;;;;;;;;;;;;;;9.22;50.80;102076.63;5008276;28;6807;-77
2021/03/28 02:11:39;;;;;;;;;;;;;;;9.23;50.61;102068.03;4959244;28;12812;-77
2021/03/28 02:14:23;;;;;;;;;;;;;;;9.22;50.77;102057.59;5002891;28;11399;-77
2021/03/28 02:17:02;;;;;;;;;;;;;;;9.21;51.05;102053.19;5007732;28;8562;-77
2021/03/28 02:19:33;;;;;;;;;;;;;;;9.22;50.60;102045.53;4968702;28;7112;-77
2021/03/28 02:22:10;;;;;;;;;;;;;;;9.21;50.69;102048.94;4969746;28;8337;-77
2021/03/28 02:24:48;;;;;;;;;;;;;;;9.16;50.94;102045.19;4993826;28;11155;-77
2021/03/28 02:27:19;;;;;;;;;;;;;;;9.19;50.73;102047.03;5007835;28;6982;-77
2021/03/28 02:29:56;;;;;;;;;;;;;;;9.17;51.13;102052.16;5008807;28;7958;-77
2021/03/28 02:32:45;;;;;;;;;;;;;;;9.13;51.20;102058.91;4991560;28;7068;-77
2021/03/28 02:35:29;;;;;;;;;;;;;;;9.17;51.09;102059.03;4973708;28;11067;-77
2021/03/28 02:37:56;;;;;;;;;;;;;;;9.14;50.97;102063.25;4987811;28;7038;-77
2021/03/28 02:40:33;;;;;;;;;;;;;;;9.15;51.31;102067.63;4989861;28;6903;-77
2021/03/28 02:43:06;;;;;;;;;;;;;;;9.11;51.17;102070.88;4988752;28;7203;-77
2021/03/28 02:45:33;;;;;;;;;;;;;;;9.11;51.61;102067.41;4989852;28;11318;-77
2021/03/28 02:48:18;;;;;;;;;;;;;;;9.12;51.26;102071.78;4974458;28;7103;-77
2021/03/28 02:50:56;;;;;;;;;;;;;;;9.10;51.22;102070.81;4987580;28;12922;-77
2021/03/28 02:53:59;;;;;;;;;;;;;;;9.08;51.35;102060.38;4989121;28;7322;-77
2021/03/28 02:56:54;;;;;;;;;;;;;;;9.07;51.84;102061.19;4960658;28;11109;-77
2021/03/28 02:59:57;;;;;;;;;;;;;;;9.01;51.75;102057.38;4986841;28;11095;-77
2021/03/28 03:02:48;;;;;;;;;;;;;;;9.04;51.55;102061.03;4993340;28;11467;-79
2021/03/28 03:05:19;;;;;;;;;;;;;;;9.05;51.92;102051.56;4990356;28;11705;-77
2021/03/28 03:08:04;;;;;;;;;;;;;;;9.04;51.90;102054.97;4989433;28;7130;-77
2021/03/28 03:10:49;;;;;;;;;;;;;;;9.03;52.15;102061.84;4987328;28;6821;-77
2021/03/28 03:13:43;;;;;;;;;;;;;;;9.04;51.83;102065.34;4992132;28;11443;-77
2021/03/28 03:16:29;;;;;;;;;;;;;;;9.03;51.79;102064.44;4972574;28;11098;-77
2021/03/28 03:19:16;;;;;;;;;;;;;;;9.03;52.19;102066.16;5001953;28;7299;-77
2021/03/28 03:21:53;;;;;;;;;;;;;;;9.02;51.68;102049.72;5008915;28;11129;-77
2021/03/28 03:24:28;;;;;;;;;;;;;;;9.00;51.47;102059.09;5005830;28;8586;-77
2021/03/28 03:26:59;;;;;;;;;;;;;;;8.99;51.85;102064.19;4990617;28;7032;-77
2021/03/28 03:29:34;;;;;;;;;;;;;;;8.98;51.88;102063.31;4994153;28;7452;-77
2021/03/28 03:32:08;;;;;;;;;;;;;;;8.94;52.27;102063.06;4987495;28;7090;-77
2021/03/28 03:35:00;;;;;;;;;;;;;;;8.95;51.81;102063.16;4987655;28;11431;-77
2021/03/28 03:37:38;;;;;;;;;;;;;;;8.94;52.26;102070.84;4988302;28;11285;-77
2021/03/28 03:40:10;;;;;;;;;;;;;;;8.94;51.87;102068.25;4990785;28;11054;-77
2021/03/28 03:42:59;;;;;;;;;;;;;;;8.92;52.11;102046.56;4988602;28;11014;-77
2021/03/28 03:45:44;;;;;;;;;;;;;;;8.89;52.18;102057.66;4992108;28;11198;-77
2021/03/28 03:48:10;;;;;;;;;;;;;;;8.88;52.23;102062.78;4984861;28;11786;-77
2021/03/28 03:50:44;;;;;;;;;;;;;;;8.86;52.51;102060.09;4990736;28;7099;-77
2021/03/28 03:53:14;;;;;;;;;;;;;;;8.85;52.28;102053.16;4992003;28;11343;-77
2021/03/28 03:55:41;;;;;;;;;;;;;;;8.83;52.14;102050.50;4998144;28;7695;-77
2021/03/28 03:58:23;;;;;;;;;;;;;;;8.80;52.35;102047.72;4992160;28;7300;-77
2021/03/28 04:01:17;;;;;;;;;;;;;;;8.80;52.19;102049.41;4977774;28;11134;-77
2021/03/28 04:03:57;;;;;;;;;;;;;;;8.78;52.76;102053.63;4985720;28;11401;-77
2021/03/28 04:06:33;;;;;;;;;;;;;;;8.76;52.49;102058.72;4976461;28;6811;-77
2021/03/28 04:09:08;;;;;;;;;;;;;;;8.74;52.81;102055.19;5005580;28;7175;-77
2021/03/28 04:11:42;;;;;;;;;;;;;;;8.72;52.89;102055.91;4988023;28;11247;-77
2021/03/28 04:14:36;;;;;;;;;;;;;;;8.72;52.90;102045.56;4988048;28;11163;-77
2021/03/28 04:17:23;;;;;;;;;;;;;;;8.70;53.04;102052.34;4989645;28;7035;-77
2021/03/28 04:20:07;;;;;;;;;;;;;;;8.69;52.75;102058.34;4990959;28;11571;-77
2021/03/28 04:22:52;;;;;;;;;;;;;;;8.68;52.82;102066.94;4994143;28;13059;-77
2021/03/28 04:25:59;;;;;;;;;;;;;;;8.65;52.94;102062.50;4989686;28;11133;-77
2021/03/28 04:28:36;;;;;;;;;;;;;;;8.64;52.83;102059.81;4974456;28;14286;-77
2021/03/28 04:31:39;;;;;;;;;;;;;;;8.62;52.85;102056.28;5005725;28;8416;-77
2021/03/28 04:34:20;;;;;;;;;;;;;;;8.59;52.67;102056.06;4987407;28;11328;-77
2021/03/28 04:37:10;;;;;;;;;;;;;;;8.58;53.23;102044.84;4970675;28;11155;-77
2021/03/28 04:39:44;;;;;;;;;;;;;;;8.57;52.97;102048.22;4985896;28;12498;-77
2021/03/28 04:42:47;;;;;;;;;;;;;;;8.59;53.16;102056.06;4987449;28;10918;-77
2021/03/28 04:45:39;;;;;;;;;;;;;;;8.56;53.27;102072.34;4989195;28;11293;-77
2021/03/28 04:48:12;;;;;;;;;;;;;;;8.56;53.05;102067.16;5003880;28;11183;-77
2021/03/28 04:50:50;;;;;;;;;;;;;;;8.53;53.36;102067.91;4988879;28;11105;-77
2021/03/28 04:53:21;;;;;;;;;;;;;;;8.53;53.36;102074.78;4991407;28;11294;-77
2021/03/28 04:56:12;;;;;;;;;;;;;;;8.51;52.94;102068.63;4988244;28;8015;-77
2021/03/28 04:59:09;;;;;;;;;;;;;;;8.51;53.25;102084.16;4990046;28;11321;-77
2021/03/28 05:01:46;;;;;;;;;;;;;;;8.49;53.35;102080.63;4987729;28;11122;-77
2021/03/28 05:04:43;;;;;;;;;;;;;;;8.48;53.27;102082.31;4975743;28;11129;-77
2021/03/28 05:07:27;;;;;;;;;;;;;;;8.47;53.17;102079.66;4991377;28;11263;-77
2021/03/28 05:10:11;;;;;;;;;;;;;;;8.46;53.89;102080.47;4986377;28;10952;-77
2021/03/28 05:13:01;;;;;;;;;;;;;;;8.45;53.80;102089.03;4988448;28;11413;-77
2021/03/28 05:15:38;;;;;;;;;;;;;;;8.45;53.54;102091.63;4991992;28;11191;-77
2021/03/28 05:18:33;;;;;;;;;;;;;;;8.44;53.65;102102.78;4985159;28;7408;-77
2021/03/28 05:21:01;;;;;;;;;;;;;;;8.42;53.53;102094.06;4986555;28;11450;-77
2021/03/28 05:23:36;;;;;;;;;;;;;;;8.42;53.99;102094.94;4987997;28;7384;-77
2021/03/28 05:26:38;;;;;;;;;;;;;;;8.43;53.50;102103.59;5002521;28;7405;-77
2021/03/28 05:29:34;;;;;;;;;;;;;;;8.42;53.34;102107.00;4990720;28;13126;-77
2021/03/28 05:32:08;;;;;;;;;;;;;;;8.43;53.47;102107.06;4988101;28;11190;-77
2021/03/28 05:34:45;;;;;;;;;;;;;;;8.43;53.91;102114.84;4994063;28;6831;-77
2021/03/28 05:37:19;;;;;;;;;;;;;;;8.46;53.49;102122.78;4991699;28;11135;-77
2021/03/28 05:40:04;;;;;;;;;;;;;;;8.45;54.13;102113.22;4988123;28;8199;-77
2021/03/28 05:42:32;;;;;;;;;;;;;;;8.43;53.64;102112.25;4991327;28;7353;-77
2021/03/28 05:45:16;;;;;;;;;;;;;;;8.44;54.28;102107.97;4991749;28;6833;-77
2021/03/28 05:47:44;;;;;;;;;;;;;;;8.44;53.95;102107.97;4993467;28;11184;-77
2021/03/28 05:50:22;;;;;;;;;;;;;;;8.45;54.07;102104.56;4990229;28;7241;-77
2021/03/28 05:53:20;;;;;;;;;;;;;;;8.48;54.11;102108.22;5008856;28;11153;-77
2021/03/28 05:55:56;;;;;;;;;;;;;;;8.51;53.65;102110.94;4992558;28;12399;-77
2021/03/28 05:58:49;;;;;;;;;;;;;;;8.50;53.86;102110.88;4991620;28;6804;-77
2021/03/28 06:01:23;;;;;;;;;;;;;;;8.53;54.08;102106.75;4986018;28;13003;-77
2021/03/28 06:04:26;;;;;;;;;;;;;;;8.53;53.50;102101.56;4994755;28;7199;-77
2021/03/28 06:07:21;;;;;;;;;;;;;;;8.59;53.67;102100.97;4993034;28;11151;-77
2021/03/28 06:10:15;;;;;;;;;;;;;;;8.61;53.45;102102.00;4977983;28;11365;-77
2021/03/28 06:13:03;;;;;;;;;;;;;;;8.64;53.86;102104.72;4974805;28;11275;-77
2021/03/28 06:15:56;;;;;;;;;;;;;;;8.68;53.53;102104.06;4989946;28;7581;-77
2021/03/28 06:18:59;;;;;;;;;;;;;;;8.70;53.30;102101.56;4992722;28;11261;-77
2021/03/28 06:22:02;;;;;;;;;;;;;;;8.73;53.58;102099.13;4990520;28;11119;-77
2021/03/28 06:24:35;;;;;;;;;;;;;;;8.77;53.28;102094.19;4961066;28;11193;-77
2021/03/28 06:27:07;;;;;;;;;;;;;;;8.79;53.32;102096.84;4990991;28;7127;-77
2021/03/28 06:29:52;;;;;;;;;;;;;;;8.81;53.16;102101.31;4988692;28;6985;-77
2021/03/28 06:32:18;;;;;;;;;;;;;;;8.86;53.29;102108.44;4989901;28;12846;-77
2021/03/28 06:35:02;;;;;;;;;;;;;;;8.87;53.15;102097.25;4990136;28;7735;-77
2021/03/28 06:37:47;;;;;;;;;;;;;;;8.94;53.42;102102.81;4993017;28;7372;-77
2021/03/28 06:40:39;;;;;;;;;;;;;;;8.95;53.04;102101.13;4988927;28;11421;-77
2021/03/28 06:43:15;;;;;;;;;;;;;;;9.01;53.30;102102.34;4976525;28;8602;-77
2021/03/28 06:46:03;;;;;;;;;;;;;;;9.06;53.21;102115.53;5005983;28;11082;-77
2021/03/28 06:48:52;;;;;;;;;;;;;;;9.07;53.04;102109.53;4988819;28;11371;-76
2021/03/28 06:51:43;;;;;;;;;;;;;;;9.14;52.85;102109.03;4987237;28;12785;-76
2021/03/28 06:54:33;;;;;;;;;;;;;;;9.16;52.66;102107.41;4987210;28;11223;-76
2021/03/28 06:57:42;;;;;;;;;;;;;;;9.19;52.96;102104.94;4988797;28;11130;-76
2021/03/28 07:00:27;;;;;;;;;;;;;;;9.28;52.73;102105.44;4973831;28;12501;-76
2021/03/28 07:03:11;;;;;;;;;;;;;;;9.31;52.67;102110.75;5001528;28;12587;-78
2021/03/28 07:05:59;;;;;;;;;;;;;;;9.33;52.47;102109.13;4989764;28;7195;-74
2021/03/28 07:08:59;;;;;;;;;;;;;;;9.37;52.96;102111.06;4990115;28;11029;-74
2021/03/28 07:11:34;;;;;;;;;;;;;;;9.42;52.27;102107.03;4989566;28;11043;-74
2021/03/28 07:14:37;;;;;;;;;;;;;;;9.46;52.53;102097.69;4970851;28;7068;-74
2021/03/28 07:17:11;;;;;;;;;;;;;;;9.57;52.16;102093.00;4988279;28;11281;-75
2021/03/28 07:19:49;;;;;;;;;;;;;;;9.68;51.97;102091.84;4989092;28;8492;-74
2021/03/28 07:22:36;;;;;;;;;;;;;;;9.77;51.36;102087.06;4990049;28;11375;-76
2021/03/28 07:25:24;;;;;;;;;;;;;;;9.90;51.47;102091.16;4988440;28;6828;-74
2021/03/28 07:28:08;;;;;;;;;;;;;;;10.00;51.14;102085.56;4988685;28;11238;-73
2021/03/28 07:31:15;;;;;;;;;;;;;;;10.11;50.66;102102.53;4987319;28;6872;-73
2021/03/28 07:34:06;;;;;;;;;;;;;;;10.18;50.51;102094.19;4988488;28;11016;-76
2021/03/28 07:36:53;;;;;;;;;;;;;;;10.32;50.34;102107.84;4991036;28;11130;-71
2021/03/28 07:39:43;;;;;;;;;;;;;;;10.44;50.06;102113.63;4990678;28;11143;-76
2021/03/28 07:42:46;;;;;;;;;;;;;;;10.61;50.13;102110.09;4992151;28;11415;-74
2021/03/28 07:45:49;;;;;;;;;;;;;;;10.74;49.94;102105.41;4988618;28;11072;-74
2021/03/28 07:48:33;;;;;;;;;;;;;;;10.84;49.27;102107.59;4986259;28;10945;-74
2021/03/28 07:51:08;;;;;;;;;;;;;;;10.89;49.25;102096.56;4991006;28;7095;-74
2021/03/28 07:53:53;;;;;;;;;;;;;;;10.93;49.39;102095.88;4986406;28;7341;-72
2021/03/28 07:56:37;;;;;;;;;;;;;;;11.02;48.44;102102.31;4988173;28;10976;-73
2021/03/28 07:59:21;;;;;;;;;;;;;;;11.14;48.84;102100.22;4987280;28;7487;-73
2021/03/28 08:02:16;;;;;;;;;;;;;;;11.21;48.84;102103.16;4984652;28;12412;-75
2021/03/28 08:05:01;;;;;;;;;;;;;;;11.23;48.65;102106.72;4958944;28;12779;-77
2021/03/28 08:07:53;;;;;;;;;;;;;;;11.26;48.68;102113.75;4985425;28;12971;-76
2021/03/28 08:10:33;;;;;;;;;;;;;;;11.36;48.00;102115.91;4984743;28;11251;-76
2021/03/28 08:13:01;;;;;;;;;;;;;;;11.44;47.58;102114.53;4988039;28;7234;-77
2021/03/28 08:15:30;;;;;;;;;;;;;;;11.55;48.12;102114.94;4988490;28;8223;-76
2021/03/28 08:18:13;;;;;;;;;;;;;;;11.66;47.14;102126.69;4997424;28;7346;-76
2021/03/28 08:21:10;;;;;;;;;;;;;;;11.76;47.57;102123.63;5005152;28;7951;-76
2021/03/28 08:24:09;;;;;;;;;;;;;;;11.85;46.80;102126.66;4984163;28;11053;-76
2021/03/28 08:27:12;;;;;;;;;;;;;;;11.95;46.50;102124.38;4988064;28;11173;-78
2021/03/28 08:30:02;;;;;;;;;;;;;;;12.05;47.00;102123.94;4987861;28;11114;-77
2021/03/28 08:32:54;;;;;;;;;;;;;;;12.12;46.26;102116.41;4992823;28;11169;-77
2021/03/28 08:35:49;;;;;;;;;;;;;;;12.19;46.66;102121.03;4981204;28;13265;-76
2021/03/28 08:38:42;;;;;;;;;;;;;;;12.32;45.68;102125.00;4987048;28;11005;-75
2021/03/28 08:41:32;;;;;;;;;;;;;;;12.51;45.01;102123.06;4970200;28;6832;-76
2021/03/28 08:44:16;;;;;;;;;;;;;;;12.72;45.61;102119.53;4985323;28;10986;-75
2021/03/28 08:47:00;;;;;;;;;;;;;;;13.00;44.13;102125.72;4987406;28;11001;-78
2021/03/28 08:49:35;;;;;;;;;;;;;;;13.22;44.29;102127.44;4984458;28;11095;-74
2021/03/28 08:52:19;;;;;;;;;;;;;;;13.48;43.54;102128.28;4999901;28;11157;-74
2021/03/28 08:55:14;;;;;;;;;;;;;;;13.77;44.04;102121.41;4971819;28;8296;-75
2021/03/28 08:57:55;;;;;;;;;;;;;;;13.97;44.08;102122.91;4977708;28;11002;-75
2021/03/28 09:00:25;;;;;;;;;;;;;;;14.15;43.64;102125.22;4972811;28;7227;-76
2021/03/28 09:03:09;;;;;;;;;;;;;;;14.40;43.05;102124.22;5000770;28;7127;-74
2021/03/28 09:05:49;;;;;;;;;;;;;;;14.48;43.61;102128.00;4987444;28;12861;-79
2021/03/28 09:08:41;;;;;;;;;;;;;;;14.20;43.19;102121.00;4987585;28;6912;-76
2021/03/28 09:11:27;;;;;;;;;;;;;;;16.05;42.55;102119.03;4991817;28;11146;-77
2021/03/28 09:13:59;;;;;;;;;;;;;;;15.67;43.44;102121.63;4992381;28;6907;-74
2021/03/28 09:16:49;;;;;;;;;;;;;;;15.44;43.65;102122.78;4983267;28;13220;-74
2021/03/28 09:19:16;;;;;;;;;;;;;;;15.58;43.11;102120.47;4985634;28;11299;-73
2021/03/28 09:22:14;;;;;;;;;;;;;;;15.93;42.32;102111.75;4985100;28;6795;-73
2021/03/28 09:24:54;;;;;;;;;;;;;;;16.08;42.25;102119.97;4987443;28;11161;-76
2021/03/28 09:27:37;;;;;;;;;;;;;;;16.21;41.82;102110.63;4965107;28;7170;-75
2021/03/28 09:30:22;;;;;;;;;;;;;;;16.41;41.33;102101.44;4982675;28;12304;-76
2021/03/28 09:33:23;;;;;;;;;;;;;;;16.54;40.75;102105.22;4970954;28;6792;-77
2021/03/28 09:36:20;;;;;;;;;;;;;;;16.72;40.23;102100.38;4978301;28;11293;-76
2021/03/28 09:39:23;;;;;;;;;;;;;;;16.85;40.02;102116.38;4996572;28;11536;-76
2021/03/28 09:42:08;;;;;;;;;;;;;;;16.91;40.02;102096.38;4988822;28;11394;-76
2021/03/28 09:44:45;;;;;;;;;;;;;;;16.96;39.91;102099.06;4986301;28;11115;-75
2021/03/28 09:47:36;;;;;;;;;;;;;;;16.96;40.05;102097.31;4980100;28;7367;-75
2021/03/28 09:50:06;;;;;;;;;;;;;;;17.02;39.93;102088.72;4993579;28;12702;-78
2021/03/28 09:52:48;;;;;;;;;;;;;;;17.23;39.37;102091.72;4990552;28;7248;-75
2021/03/28 09:55:27;;;;;;;;;;;;;;;17.36;38.87;102099.78;4962407;28;6975;-76
2021/03/28 09:57:55;;;;;;;;;;;;;;;17.39;38.96;102098.06;4986988;28;7376;-75
2021/03/28 10:00:35;;;;;;;;;;;;;;;17.05;37.76;102090.50;4989509;28;6808;-78
2021/03/28 10:03:17;;;;;;;;;;;;;;;17.44;38.10;102087.66;4999099;28;11128;-76
2021/03/28 10:05:44;;;;;;;;;;;;;;;17.61;37.85;102088.78;4989327;28;7218;-77
2021/03/28 10:08:14;;;;;;;;;;;;;;;17.65;38.67;102088.00;4969736;28;7199;-79
2021/03/28 10:10:44;;;;;;;;;;;;;;;17.72;37.87;102089.91;4970556;28;7037;-79
2021/03/28 10:13:46;;;;;;;;;;;;;;;17.89;37.44;102087.53;4986079;28;7131;-78
2021/03/28 10:16:12;;;;;;;;;;;;;;;18.06;37.38;102083.38;5003299;28;11085;-80
2021/03/28 10:19:07;;;;;;;;;;;;;;;18.51;37.82;102088.34;4984700;28;7212;-81
2021/03/28 10:21:35;;;;;;;;;;;;;;;19.21;39.23;102079.44;4964519;28;10914;-78
2021/03/28 10:24:26;;;;;;;;;;;;;;;19.53;39.80;102072.69;4986783;28;7266;-78
2021/03/28 10:27:16;;;;;;;;;;;;;;;20.12;38.71;102063.41;4988371;28;6847;-78
2021/03/28 10:30:03;;;;;;;;;;;;;;;20.27;38.49;102066.13;4988736;28;11257;-78
2021/03/28 10:32:34;;;;;;;;;;;;;;;20.35;39.44;102057.34;4980565;28;11071;-78
2021/03/28 10:35:22;;;;;;;;;;;;;;;19.61;41.71;102065.75;4970493;28;11218;-78
2021/03/28 10:38:20;;;;;;;;;;;;;;;19.57;42.03;102057.81;4986925;28;11167;-77
2021/03/28 10:41:09;;;;;;;;;;;;;;;19.58;41.76;102071.00;4989875;28;12798;-77
2021/03/28 10:44:02;;;;;;;;;;;;;;;19.62;41.43;102072.81;4986526;28;12937;-77
2021/03/28 10:46:46;;;;;;;;;;;;;;;19.63;39.31;102069.31;4998269;28;11193;-75
2021/03/28 10:49:49;;;;;;;;;;;;;;;20.23;40.34;102065.25;4985016;28;11335;-73
2021/03/28 10:52:21;;;;;;;;;;;;;;;19.81;34.23;102071.16;4988578;28;11329;-75
2021/03/28 10:55:10;;;;;;;;;;;;;;;20.33;37.75;102068.78;4985917;28;7381;-75
2021/03/28 10:57:50;;;;;;;;;;;;;;;21.02;37.27;102064.59;4971777;28;11337;-74
2021/03/28 11:00:59;;;;;;;;;;;;;;;20.26;35.46;102054.69;4987723;28;7135;-78
2021/03/28 11:04:02;;;;;;;;;;;;;;;20.34;35.88;102055.59;4989350;28;11110;-78
2021/03/28 11:06:27;;;;;;;;;;;;;;;20.41;35.78;102071.47;4987636;28;11235;-79
2021/03/28 11:09:43;;;;;;;;;;;;;;;20.55;35.31;102059.22;4989943;28;7206;-78
2021/03/28 11:12:30;;;;;;;;;;;;;;;20.55;34.81;102073.28;4974964;28;11068;-78
2021/03/28 11:15:16;;;;;;;;;;;;;;;20.62;35.05;102059.25;5004822;28;6980;-80
2021/03/28 11:17:59;;;;;;;;;;;;;;;20.88;34.66;102061.94;4971244;28;11093;-80
2021/03/28 11:20:43;;;;;;;;;;;;;;;21.16;34.39;102049.63;4992960;28;8235;-77
2021/03/28 11:23:28;;;;;;;;;;;;;;;21.53;34.02;102045.25;4970305;28;11070;-76
2021/03/28 11:25:56;;;;;;;;;;;;;;;21.54;33.49;102049.66;4988937;28;6820;-75
2021/03/28 11:28:46;;;;;;;;;;;;;;;21.65;33.07;102059.34;4988045;28;6875;-75
2021/03/28 11:31:27;;;;;;;;;;;;;;;21.81;33.05;102050.47;4988761;28;11160;-77
2021/03/28 11:34:19;;;;;;;;;;;;;;;21.99;31.67;102045.13;4991035;28;6974;-78
2021/03/28 11:36:57;;;;;;;;;;;;;;;22.29;31.48;102033.59;4981708;28;11356;-76
2021/03/28 11:39:27;;;;;;;;;;;;;;;22.52;31.35;102035.22;4983100;28;6860;-76
2021/03/28 11:42:19;;;;;;;;;;;;;;;22.69;31.81;102031.59;4957801;28;7096;-77
2021/03/28 11:44:59;;;;;;;;;;;;;;;22.63;32.23;102038.72;4983101;28;11612;-77
2021/03/28 11:47:36;;;;;;;;;;;;;;;22.69;32.03;102036.91;4980283;28;6852;-76
2021/03/28 11:50:27;;;;;;;;;;;;;;;22.90;32.13;102022.66;4983069;28;11167;-75
2021/03/28 11:53:01;;;;;;;;;;;;;;;23.06;31.50;102019.00;4968116;28;11495;-75
2021/03/28 11:55:35;;;;;;;;;;;;;;;22.99;31.58;102017.28;4983985;28;6903;-77
2021/03/28 11:58:13;;;;;;;;;;;;;;;22.97;31.75;102016.41;4982047;28;11400;-75
2021/03/28 12:00:38;;;;;;;;;;;;;;;23.19;31.97;102017.09;4983304;28;11339;-75
2021/03/28 12:03:19;;;;;;;;;;;;;;;23.16;31.35;102024.22;4982631;28;6783;-75
2021/03/28 12:06:04;;;;;;;;;;;;;;;23.11;32.47;102024.25;4986788;28;6868;-75
2021/03/28 12:08:56;;;;;;;;;;;;;;;23.54;31.64;102034.47;4991359;28;11413;-75
2021/03/28 12:11:49;;;;;;;;;;;;;;;23.54;30.52;102019.44;4972596;28;13036;-75
2021/03/28 12:14:27;;;;;;;;;;;;;;;23.79;30.84;102021.84;5000311;28;11277;-80
2021/03/28 12:17:11;;;;;;;;;;;;;;;24.67;28.80;102019.84;5007108;28;6872;-80
2021/03/28 12:19:58;;;;;;;;;;;;;;;25.16;28.55;102006.66;4999085;28;11349;-81
2021/03/28 12:22:30;;;;;;;;;;;;;;;25.36;27.86;102015.16;4999697;28;7238;-82
2021/03/28 12:25:06;;;;;;;;;;;;;;;25.63;27.75;102012.88;4981059;28;7551;-81
2021/03/28 12:27:57;;;;;;;;;;;;;;;25.97;26.87;102014.00;4983193;28;11228;-82
2021/03/28 12:30:29;;;;;;;;;;;;;;;26.29;26.47;102018.66;4991184;28;11411;-82
2021/03/28 12:33:04;;;;;;;;;;;;;;;26.11;26.32;102019.06;4994976;28;7294;-82
2021/03/28 12:35:39;;;;;;;;;;;;;;;26.04;26.56;102018.31;4990190;28;13969;-81
2021/03/28 12:38:29;;;;;;;;;;;;;;;26.03;26.74;102019.22;4987185;28;11806;-81
2021/03/28 12:41:14;;;;;;;;;;;;;;;26.23;26.49;102010.81;4986632;28;7226;-82
2021/03/28 12:44:05;;;;;;;;;;;;;;;26.45;26.31;102007.72;4989535;28;10968;-83
2021/03/28 12:46:30;;;;;;;;;;;;;;;26.58;26.20;102014.50;4990870;28;11118;-82
2021/03/28 12:49:08;;;;;;;;;;;;;;;26.80;25.66;102012.19;4985006;28;7243;-82
2021/03/28 12:51:36;;;;;;;;;;;;;;;27.03;25.41;102001.91;5003491;28;11395;-82
2021/03/28 12:54:26;;;;;;;;;;;;;;;27.59;25.08;101999.50;4977055;28;13036;-82
2021/03/28 12:56:52;;;;;;;;;;;;;;;28.05;24.43;101996.44;4993261;28;11021;-83
2021/03/28 12:59:37;;;;;;;;;;;;;;;28.25;24.16;101989.59;4995521;28;7032;-80
2021/03/28 13:02:30;;;;;;;;;;;;;;;28.29;24.16;101980.59;4963069;28;13003;-80
2021/03/28 13:05:22;;;;;;;;;;;;;;;28.59;23.63;101984.09;4980340;28;11168;-81
2021/03/28 13:07:52;;;;;;;;;;;;;;;28.92;23.16;101980.34;5006236;28;12717;-81
2021/03/28 13:10:30;;;;;;;;;;;;;;;29.15;22.66;101981.34;4976629;28;7015;-82
2021/03/28 13:13:01;;;;;;;;;;;;;;;29.08;23.79;101983.38;4995388;28;6888;-81
2021/03/28 13:15:47;;;;;;;;;;;;;;;29.46;22.39;101981.19;4980351;28;8727;-82
2021/03/28 13:18:13;;;;;;;;;;;;;;;30.34;22.30;101982.31;4990775;28;12727;-81
2021/03/28 13:20:39;;;;;;;;;;;;;;;31.94;20.06;101967.38;4997680;28;7160;-83
2021/03/28 13:23:13;;;;;;;;;;;;;;;32.12;19.84;101979.09;4981427;28;7195;-81
2021/03/28 13:25:39;;;;;;;;;;;;;;;31.77;19.63;101976.22;4981455;28;7015;-81
2021/03/28 13:28:10;;;;;;;;;;;;;;;31.59;20.09;101977.03;4980873;28;6795;-81
2021/03/28 13:30:43;;;;;;;;;;;;;;;32.00;20.04;101959.91;5000052;28;11382;-82
2021/03/28 13:33:20;;;;;;;;;;;;;;;34.43;18.04;101958.00;4977750;28;7288;-82
2021/03/28 13:35:46;;;;;;;;;;;;;;;33.62;18.03;101954.41;5002943;28;7300;-84
2021/03/28 13:38:26;;;;;;;;;;;;;;;34.16;17.57;101961.31;4988475;28;7131;-83
2021/03/28 13:40:56;;;;;;;;;;;;;;;34.86;17.26;101959.09;4995447;28;7436;-82
2021/03/28 13:43:27;;;;;;;;;;;;;;;35.41;16.47;101961.16;4968658;28;7303;-83
2021/03/28 13:45:53;;;;;;;;;;;;;;;35.41;16.35;101954.88;4977842;28;8872;-82
2021/03/28 13:48:22;;;;;;;;;;;;;;;35.79;16.55;101953.34;4968906;28;6792;-84
2021/03/28 13:50:55;;;;;;;;;;;;;;;35.63;15.94;101948.03;4983807;28;6816;-84
2021/03/28 13:53:24;;;;;;;;;;;;;;;36.11;15.72;101951.28;4990036;28;6800;-82
2021/03/28 13:55:52;;;;;;;;;;;;;;;35.46;16.19;101941.97;4989449;28;8626;-82
2021/03/28 13:58:17;;;;;;;;;;;;;;;35.09;17.00;101941.50;5003978;28;8585;-81
2021/03/28 14:00:43;;;;;;;;;;;;;;;35.50;16.35;101940.81;4988615;28;7125;-76
2021/03/28 14:03:29;;;;;;;;;;;;;;;35.56;16.72;101935.88;4961733;28;6995;-76
2021/03/28 14:05:55;;;;;;;;;;;;;;;35.27;16.66;101940.38;4998956;28;7265;-76